Time;durP1;ratioP1;P1;durP2;ratioP2;P2;SDS_P1;SDS_P2;PMS_P1;PMS_P2;Temp;Humidity;BMP_temperature;BMP_pressure;BME280_temperature;BME280_humidity;BME280_pressure;Samples;Min_cycle;Max_cycle;Signal;HPM_P1;HPM_P2
2021/08/15 00:01:03;;;;;;;10.20;4.50;;;;;;;;;;5051671;28;20612;-57
2021/08/15 00:03:28;;;;;;;14.87;5.03;;;;;;;;;;5044529;28;20208;-57
2021/08/15 00:05:53;;;;;;;12.50;4.63;;;;;;;;;;5066918;28;20649;-57
2021/08/15 00:08:19;;;;;;;19.00;5.10;;;;;;;;;;5060978;28;20268;-57
2021/08/15 00:10:44;;;;;;;12.05;5.15;;;;;;;;;;5061045;28;20673;-58
2021/08/15 00:13:09;;;;;;;9.88;4.78;;;;;;;;;;5046558;28;20184;-57
2021/08/15 00:15:34;;;;;;;10.07;4.85;;;;;;;;;;5047287;28;20177;-57
2021/08/15 00:18:00;;;;;;;12.60;5.05;;;;;;;;;;5064838;28;20276;-57
2021/08/15 00:20:25;;;;;;;11.15;4.60;;;;;;;;;;5063577;28;20606;-57
2021/08/15 00:22:50;;;;;;;12.88;5.07;;;;;;;;;;5059409;28;20208;-56
2021/08/15 00:25:16;;;;;;;15.93;5.30;;;;;;;;;;5063107;28;20231;-57
2021/08/15 00:27:42;;;;;;;20.35;5.32;;;;;;;;;;5063034;28;20177;-58
2021/08/15 00:30:07;;;;;;;9.07;5.28;;;;;;;;;;5067020;28;20220;-57
2021/08/15 00:32:33;;;;;;;8.30;4.82;;;;;;;;;;5052134;28;20193;-58
2021/08/15 00:34:58;;;;;;;10.32;5.15;;;;;;;;;;5058775;28;20200;-57
2021/08/15 00:37:23;;;;;;;10.93;5.18;;;;;;;;;;5059655;28;20186;-57
2021/08/15 00:39:49;;;;;;;10.23;4.65;;;;;;;;;;5056986;28;20219;-56
2021/08/15 00:42:14;;;;;;;10.30;4.90;;;;;;;;;;5062499;28;20197;-57
2021/08/15 00:44:39;;;;;;;12.10;5.00;;;;;;;;;;5058508;28;20783;-57
2021/08/15 00:47:06;;;;;;;11.25;5.10;;;;;;;;;;5052574;28;20528;-57
2021/08/15 00:49:31;;;;;;;9.75;4.88;;;;;;;;;;5061839;28;20858;-57
2021/08/15 00:51:56;;;;;;;10.40;5.30;;;;;;;;;;5049429;28;20196;-57
2021/08/15 00:54:21;;;;;;;10.98;4.40;;;;;;;;;;5047295;28;20230;-57
2021/08/15 00:56:53;;;;;;;13.60;5.10;;;;;;;;;;5064514;28;20192;-56
2021/08/15 00:59:19;;;;;;;8.00;4.00;;;;;;;;;;5050516;28;20189;-58
2021/08/15 01:01:44;;;;;;;9.02;4.05;;;;;;;;;;5056119;28;20197;-57
2021/08/15 01:04:09;;;;;;;9.27;4.00;;;;;;;;;;5041729;28;20205;-57
2021/08/15 01:06:35;;;;;;;6.80;4.20;;;;;;;;;;5058808;28;20238;-57
2021/08/15 01:09:01;;;;;;;6.43;3.83;;;;;;;;;;5054511;28;20184;-57
2021/08/15 01:11:27;;;;;;;8.77;4.37;;;;;;;;;;5056646;28;20189;-57
2021/08/15 01:13:58;;;;;;;11.20;4.60;;;;;;;;;;5058471;28;20666;-56
2021/08/15 01:16:23;;;;;;;10.47;4.63;;;;;;;;;;5055234;28;20727;-57
2021/08/15 01:18:48;;;;;;;8.63;4.67;;;;;;;;;;5065788;28;20264;-57
2021/08/15 01:21:14;;;;;;;11.63;4.73;;;;;;;;;;5060605;28;20209;-57
2021/08/15 01:23:40;;;;;;;15.83;4.60;;;;;;;;;;5057197;28;20186;-57
2021/08/15 01:26:06;;;;;;;8.53;4.97;;;;;;;;;;5061215;28;20209;-57
2021/08/15 01:28:31;;;;;;;8.20;4.27;;;;;;;;;;5051585;28;20598;-57
2021/08/15 01:30:57;;;;;;;7.57;4.07;;;;;;;;;;5049539;28;20190;-57
2021/08/15 01:33:33;;;;;;;10.57;4.60;;;;;;;;;;5044595;28;20810;-57
2021/08/15 01:35:58;;;;;;;13.33;5.13;;;;;;;;;;5061594;28;20189;-57
2021/08/15 01:38:24;;;;;;;12.20;5.20;;;;;;;;;;5053635;28;20268;-56
2021/08/15 01:40:50;;;;;;;9.80;4.83;;;;;;;;;;5041577;28;20198;-57
2021/08/15 01:43:15;;;;;;;13.03;5.50;;;;;;;;;;5059197;28;20180;-57
2021/08/15 01:45:41;;;;;;;8.53;5.63;;;;;;;;;;5064469;28;20555;-57
2021/08/15 01:48:06;;;;;;;15.57;5.77;;;;;;;;;;5061609;28;20260;-57
2021/08/15 01:50:31;;;;;;;9.13;5.00;;;;;;;;;;5041393;28;20730;-57
2021/08/15 01:52:56;;;;;;;7.60;4.87;;;;;;;;;;5046441;28;20185;-57
2021/08/15 01:55:22;;;;;;;10.43;5.07;;;;;;;;;;5058647;28;20192;-57
2021/08/15 01:57:47;;;;;;;15.33;5.90;;;;;;;;;;5052493;28;20235;-57
2021/08/15 02:00:12;;;;;;;12.03;5.57;;;;;;;;;;5032442;28;20460;-57
2021/08/15 02:02:42;;;;;;;9.07;5.80;;;;;;;;;;5046141;28;20879;-57
2021/08/15 02:05:07;;;;;;;12.07;6.03;;;;;;;;;;5061122;28;20185;-57
2021/08/15 02:07:32;;;;;;;12.50;5.63;;;;;;;;;;5040196;28;21345;-57
2021/08/15 02:09:57;;;;;;;11.00;5.50;;;;;;;;;;5053661;28;20193;-57
2021/08/15 02:12:23;;;;;;;9.63;5.50;;;;;;;;;;5053403;28;20182;-57
2021/08/15 02:14:48;;;;;;;18.03;5.60;;;;;;;;;;5058455;28;20201;-57
2021/08/15 02:17:13;;;;;;;8.80;5.57;;;;;;;;;;5045156;28;20188;-58
2021/08/15 02:19:38;;;;;;;12.33;5.73;;;;;;;;;;5059251;28;20560;-57
2021/08/15 02:22:03;;;;;;;13.63;5.53;;;;;;;;;;5057188;28;20197;-57
2021/08/15 02:24:29;;;;;;;9.90;5.47;;;;;;;;;;5062200;28;20208;-57
2021/08/15 02:26:54;;;;;;;12.60;5.67;;;;;;;;;;5062892;28;20652;-57
2021/08/15 02:29:19;;;;;;;11.00;6.10;;;;;;;;;;5064901;28;20174;-57
2021/08/15 02:31:44;;;;;;;14.50;6.00;;;;;;;;;;5041935;28;20710;-57
2021/08/15 02:34:10;;;;;;;12.33;5.57;;;;;;;;;;5045753;28;20330;-57
2021/08/15 02:36:35;;;;;;;11.47;5.67;;;;;;;;;;5063146;28;20185;-57
2021/08/15 02:39:00;;;;;;;10.83;6.03;;;;;;;;;;5063164;28;20641;-57
2021/08/15 02:41:25;;;;;;;17.97;6.90;;;;;;;;;;5059526;28;20227;-57
2021/08/15 02:43:50;;;;;;;10.53;5.83;;;;;;;;;;5060020;28;20181;-57
2021/08/15 02:46:16;;;;;;;11.67;6.20;;;;;;;;;;5049658;28;20277;-57
2021/08/15 02:48:41;;;;;;;14.17;5.90;;;;;;;;;;5064549;28;20185;-57
2021/08/15 02:51:06;;;;;;;13.33;5.87;;;;;;;;;;5040272;28;20205;-56
2021/08/15 02:53:31;;;;;;;13.97;6.40;;;;;;;;;;5066861;28;20177;-56
2021/08/15 02:55:56;;;;;;;13.37;6.23;;;;;;;;;;5049289;28;20284;-56
2021/08/15 02:58:21;;;;;;;13.02;6.07;;;;;;;;;;5038182;28;20178;-57
2021/08/15 03:00:47;;;;;;;11.27;6.40;;;;;;;;;;5063101;28;20630;-57
2021/08/15 03:03:12;;;;;;;12.47;6.27;;;;;;;;;;5064491;28;20178;-57
2021/08/15 03:05:37;;;;;;;19.37;6.97;;;;;;;;;;5038734;28;20662;-57
2021/08/15 03:08:02;;;;;;;16.90;6.20;;;;;;;;;;5061967;28;20170;-57
2021/08/15 03:10:27;;;;;;;13.87;6.37;;;;;;;;;;5066070;28;20696;-57
2021/08/15 03:12:53;;;;;;;11.50;5.90;;;;;;;;;;5062209;28;20182;-57
2021/08/15 03:15:18;;;;;;;14.00;5.87;;;;;;;;;;5035677;28;20272;-57
2021/08/15 03:17:43;;;;;;;20.37;6.30;;;;;;;;;;5044171;28;20193;-57
2021/08/15 03:20:09;;;;;;;15.77;6.07;;;;;;;;;;5061672;28;20204;-57
2021/08/15 03:22:34;;;;;;;12.17;5.93;;;;;;;;;;5065741;28;20655;-57
2021/08/15 03:24:59;;;;;;;11.13;6.70;;;;;;;;;;5064806;28;20182;-57
2021/08/15 03:27:24;;;;;;;12.63;6.50;;;;;;;;;;5069851;28;20201;-58
2021/08/15 03:29:49;;;;;;;14.43;6.00;;;;;;;;;;5049433;28;20237;-57
2021/08/15 03:32:15;;;;;;;11.10;6.57;;;;;;;;;;5062697;28;20269;-57
2021/08/15 03:34:40;;;;;;;21.37;5.73;;;;;;;;;;5064903;28;20182;-58
2021/08/15 03:37:05;;;;;;;12.37;6.47;;;;;;;;;;5064081;28;20182;-57
2021/08/15 03:39:30;;;;;;;14.17;5.50;;;;;;;;;;5042180;28;20205;-57
2021/08/15 03:41:58;;;;;;;14.03;6.27;;;;;;;;;;5048538;28;20858;-57
2021/08/15 03:44:23;;;;;;;21.20;6.30;;;;;;;;;;5046682;28;20293;-57
2021/08/15 03:46:49;;;;;;;16.87;6.80;;;;;;;;;;5052593;28;20312;-57
2021/08/15 03:49:14;;;;;;;14.53;6.53;;;;;;;;;;5064373;28;20252;-58
2021/08/15 03:51:39;;;;;;;18.87;6.33;;;;;;;;;;5060641;28;20228;-57
2021/08/15 03:54:04;;;;;;;13.03;7.00;;;;;;;;;;5045788;28;20254;-57
2021/08/15 03:56:29;;;;;;;15.37;5.87;;;;;;;;;;5051490;28;20189;-57
2021/08/15 03:58:55;;;;;;;13.53;6.13;;;;;;;;;;5063454;28;20288;-56
2021/08/15 04:01:20;;;;;;;12.13;5.87;;;;;;;;;;5049393;28;20216;-57
2021/08/15 04:03:45;;;;;;;16.27;5.83;;;;;;;;;;5064840;28;20189;-55
2021/08/15 04:06:12;;;;;;;8.97;5.27;;;;;;;;;;5056786;28;20178;-57
2021/08/15 04:08:38;;;;;;;10.83;6.43;;;;;;;;;;5059454;28;20715;-57
2021/08/15 04:11:03;;;;;;;12.53;5.40;;;;;;;;;;5060673;28;20201;-57
2021/08/15 04:13:28;;;;;;;12.27;5.77;;;;;;;;;;5064951;28;20237;-58
2021/08/15 04:15:53;;;;;;;10.50;5.43;;;;;;;;;;5032545;28;20217;-58
2021/08/15 04:18:18;;;;;;;15.40;6.40;;;;;;;;;;5041121;28;20201;-57
2021/08/15 04:20:44;;;;;;;12.23;5.10;;;;;;;;;;5062454;28;20216;-57
2021/08/15 04:23:09;;;;;;;10.53;5.40;;;;;;;;;;5062667;28;20178;-57
2021/08/15 04:25:34;;;;;;;10.97;6.23;;;;;;;;;;5066969;28;20550;-57
2021/08/15 04:28:00;;;;;;;10.80;5.37;;;;;;;;;;5058169;28;20269;-57
2021/08/15 04:30:25;;;;;;;40.93;6.60;;;;;;;;;;5055116;28;20206;-57
2021/08/15 04:32:50;;;;;;;10.83;6.07;;;;;;;;;;5065927;28;20252;-57
2021/08/15 04:35:15;;;;;;;10.00;6.00;;;;;;;;;;5059485;28;20181;-57
2021/08/15 04:37:40;;;;;;;12.83;6.03;;;;;;;;;;5041636;28;20211;-57
2021/08/15 04:40:06;;;;;;;14.83;6.60;;;;;;;;;;5055269;28;20229;-56
2021/08/15 04:42:31;;;;;;;14.23;7.20;;;;;;;;;;5034840;28;20214;-57
2021/08/15 04:44:56;;;;;;;14.90;6.90;;;;;;;;;;5065220;28;20223;-57
2021/08/15 04:47:22;;;;;;;12.30;6.77;;;;;;;;;;5035255;28;20247;-57
2021/08/15 04:49:47;;;;;;;14.17;7.20;;;;;;;;;;5057045;28;20220;-57
2021/08/15 04:52:12;;;;;;;17.77;7.00;;;;;;;;;;5047826;28;20169;-58
2021/08/15 04:54:37;;;;;;;15.47;7.23;;;;;;;;;;5052980;28;20192;-57
2021/08/15 04:57:02;;;;;;;12.53;7.27;;;;;;;;;;5057040;28;20193;-57
2021/08/15 04:59:28;;;;;;;14.93;7.20;;;;;;;;;;5056367;28;20221;-57
2021/08/15 05:01:53;;;;;;;11.00;7.07;;;;;;;;;;5065097;28;20576;-56
2021/08/15 05:04:18;;;;;;;13.33;6.70;;;;;;;;;;5064539;28;20177;-57
2021/08/15 05:06:43;;;;;;;12.77;6.43;;;;;;;;;;5063508;28;20192;-57
2021/08/15 05:09:08;;;;;;;12.20;6.70;;;;;;;;;;5059708;28;20213;-57
2021/08/15 05:11:34;;;;;;;10.67;6.70;;;;;;;;;;5046053;28;20185;-56
2021/08/15 05:13:59;;;;;;;13.47;6.63;;;;;;;;;;5053818;28;20178;-57
2021/08/15 05:16:24;;;;;;;12.80;6.60;;;;;;;;;;5064673;28;20243;-57
2021/08/15 05:18:50;;;;;;;11.73;6.27;;;;;;;;;;5061737;28;20273;-57
2021/08/15 05:21:15;;;;;;;12.27;6.77;;;;;;;;;;5060721;28;20750;-57
2021/08/15 05:23:40;;;;;;;12.07;7.50;;;;;;;;;;5061063;28;20205;-58
2021/08/15 05:26:05;;;;;;;13.53;7.30;;;;;;;;;;5054150;28;20670;-57
2021/08/15 05:28:30;;;;;;;9.17;6.37;;;;;;;;;;5054320;28;20286;-57
2021/08/15 05:30:56;;;;;;;12.40;7.07;;;;;;;;;;5055678;28;20232;-57
2021/08/15 05:33:21;;;;;;;10.63;6.40;;;;;;;;;;5065193;28;20244;-57
2021/08/15 05:35:46;;;;;;;11.03;6.57;;;;;;;;;;5053807;28;20292;-57
2021/08/15 05:38:11;;;;;;;12.50;6.73;;;;;;;;;;5061768;28;20734;-57
2021/08/15 05:40:37;;;;;;;14.40;6.83;;;;;;;;;;5044436;28;20695;-56
2021/08/15 05:43:02;;;;;;;12.47;7.17;;;;;;;;;;5063151;28;20748;-57
2021/08/15 05:45:28;;;;;;;9.87;6.27;;;;;;;;;;5063626;28;20181;-57
2021/08/15 05:47:53;;;;;;;12.50;5.93;;;;;;;;;;5059250;28;20340;-57
2021/08/15 05:50:19;;;;;;;11.60;6.20;;;;;;;;;;5052816;28;20209;-57
2021/08/15 05:52:44;;;;;;;14.10;6.60;;;;;;;;;;5059565;28;20228;-57
2021/08/15 05:55:09;;;;;;;10.33;6.77;;;;;;;;;;5065114;28;20177;-56
2021/08/15 05:57:34;;;;;;;11.57;6.47;;;;;;;;;;5063807;28;20853;-57
2021/08/15 06:00:00;;;;;;;11.30;6.20;;;;;;;;;;5063253;28;20205;-57
2021/08/15 06:02:25;;;;;;;11.80;6.63;;;;;;;;;;5048251;28;20199;-57
2021/08/15 06:04:50;;;;;;;12.87;6.63;;;;;;;;;;5049891;28;20755;-57
2021/08/15 06:07:15;;;;;;;11.33;5.67;;;;;;;;;;5057368;28;20269;-57
2021/08/15 06:09:40;;;;;;;11.43;7.00;;;;;;;;;;5039502;28;20616;-57
2021/08/15 06:12:06;;;;;;;9.60;6.43;;;;;;;;;;5060373;28;20225;-57
2021/08/15 06:14:32;;;;;;;13.43;6.80;;;;;;;;;;5060543;28;20645;-57
2021/08/15 06:16:57;;;;;;;10.63;6.55;;;;;;;;;;5058947;28;20240;-57
2021/08/15 06:19:22;;;;;;;10.57;6.17;;;;;;;;;;5061662;28;20216;-57
2021/08/15 06:21:47;;;;;;;16.17;6.73;;;;;;;;;;5061002;28;20201;-57
2021/08/15 06:24:12;;;;;;;13.18;7.35;;;;;;;;;;5057217;28;20740;-56
2021/08/15 06:26:38;;;;;;;10.20;6.17;;;;;;;;;;5057045;28;20181;-57
2021/08/15 06:29:03;;;;;;;10.55;6.00;;;;;;;;;;5055350;28;20178;-57
2021/08/15 06:31:28;;;;;;;11.20;6.32;;;;;;;;;;5061265;28;20881;-58
2021/08/15 06:33:53;;;;;;;13.68;6.45;;;;;;;;;;5064763;28;20864;-57
2021/08/15 06:36:19;;;;;;;13.90;6.93;;;;;;;;;;5065634;28;20174;-57
2021/08/15 06:38:44;;;;;;;11.60;5.95;;;;;;;;;;5063369;28;20646;-57
2021/08/15 06:41:09;;;;;;;11.45;6.68;;;;;;;;;;5068002;28;20799;-57
2021/08/15 06:43:35;;;;;;;12.43;7.00;;;;;;;;;;5054013;28;20199;-57
2021/08/15 06:46:00;;;;;;;10.20;5.70;;;;;;;;;;5053519;28;20236;-57
2021/08/15 06:48:25;;;;;;;9.30;5.55;;;;;;;;;;5035268;28;20186;-57
2021/08/15 06:50:59;;;;;;;11.82;6.30;;;;;;;;;;5055867;28;20728;-58
2021/08/15 06:53:28;;;;;;;9.52;5.97;;;;;;;;;;5053156;28;20200;-57
2021/08/15 06:55:54;;;;;;;8.55;5.72;;;;;;;;;;5060256;28;20213;-57
2021/08/15 06:58:19;;;;;;;11.70;5.88;;;;;;;;;;5019710;28;20205;-57
2021/08/15 07:00:44;;;;;;;8.00;5.20;;;;;;;;;;5050320;28;20288;-57
2021/08/15 07:03:10;;;;;;;12.23;5.90;;;;;;;;;;5054557;28;20233;-57
2021/08/15 07:05:35;;;;;;;12.45;5.63;;;;;;;;;;5059587;28;20213;-57
2021/08/15 07:08:00;;;;;;;9.80;5.73;;;;;;;;;;5066013;28;20205;-57
2021/08/15 07:10:27;;;;;;;9.93;5.50;;;;;;;;;;5066674;28;20485;-57
2021/08/15 07:12:55;;;;;;;9.52;5.50;;;;;;;;;;5067321;28;20185;-57
2021/08/15 07:15:28;;;;;;;12.48;5.75;;;;;;;;;;5065716;28;20178;-57
2021/08/15 07:17:53;;;;;;;8.80;5.40;;;;;;;;;;5063936;28;20181;-57
2021/08/15 07:20:18;;;;;;;12.73;6.13;;;;;;;;;;5042207;28;20262;-57
2021/08/15 07:22:44;;;;;;;10.87;6.07;;;;;;;;;;5060888;28;20217;-57
2021/08/15 07:25:09;;;;;;;9.85;5.47;;;;;;;;;;5066210;28;20812;-57
2021/08/15 07:27:35;;;;;;;10.85;5.75;;;;;;;;;;5066969;28;20671;-57
2021/08/15 07:30:00;;;;;;;10.63;5.82;;;;;;;;;;5062027;28;20201;-58
2021/08/15 07:32:26;;;;;;;14.50;6.18;;;;;;;;;;5063427;28;20189;-58
2021/08/15 07:34:51;;;;;;;11.93;5.70;;;;;;;;;;5060862;28;20685;-58
2021/08/15 07:37:16;;;;;;;10.63;6.07;;;;;;;;;;5063975;28;20185;-57
2021/08/15 07:39:41;;;;;;;11.18;5.88;;;;;;;;;;5066392;28;20606;-57
2021/08/15 07:42:07;;;;;;;11.65;6.32;;;;;;;;;;5066954;28;20288;-57
2021/08/15 07:44:32;;;;;;;12.18;5.95;;;;;;;;;;5058880;28;20877;-57
2021/08/15 07:46:57;;;;;;;10.37;5.80;;;;;;;;;;5056618;28;20250;-57
2021/08/15 07:49:22;;;;;;;11.60;6.30;;;;;;;;;;5065046;28;20682;-58
2021/08/15 07:51:48;;;;;;;10.30;5.30;;;;;;;;;;5065985;28;20199;-57
2021/08/15 07:54:13;;;;;;;12.25;6.43;;;;;;;;;;5062452;28;20479;-57
2021/08/15 07:56:38;;;;;;;11.48;5.68;;;;;;;;;;5047407;28;20181;-58
2021/08/15 07:59:03;;;;;;;11.57;5.93;;;;;;;;;;5063953;28;20174;-57
2021/08/15 08:01:28;;;;;;;10.27;5.50;;;;;;;;;;5063787;28;20876;-57
2021/08/15 08:03:53;;;;;;;12.20;5.82;;;;;;;;;;5062160;28;20452;-58
2021/08/15 08:06:19;;;;;;;11.00;5.93;;;;;;;;;;5065694;28;20265;-58
2021/08/15 08:08:44;;;;;;;9.80;6.00;;;;;;;;;;5062504;28;20786;-59
2021/08/15 08:11:09;;;;;;;14.70;6.27;;;;;;;;;;5048185;28;20447;-57
2021/08/15 08:13:34;;;;;;;13.73;6.38;;;;;;;;;;5044149;28;20812;-57
2021/08/15 08:15:59;;;;;;;10.23;5.93;;;;;;;;;;5056666;28;20653;-57
2021/08/15 08:18:25;;;;;;;12.95;5.95;;;;;;;;;;5065903;28;20420;-57
2021/08/15 08:20:51;;;;;;;12.68;5.95;;;;;;;;;;5065075;28;20197;-57
2021/08/15 08:23:16;;;;;;;11.43;6.65;;;;;;;;;;5064726;28;20195;-57
2021/08/15 08:25:44;;;;;;;10.77;5.97;;;;;;;;;;5040714;28;20673;-57
2021/08/15 08:28:09;;;;;;;14.75;6.53;;;;;;;;;;5060213;28;20170;-57
2021/08/15 08:30:35;;;;;;;11.63;5.68;;;;;;;;;;5034621;28;20202;-57
2021/08/15 08:33:00;;;;;;;12.25;5.75;;;;;;;;;;5062262;28;20189;-57
2021/08/15 08:35:26;;;;;;;12.07;6.30;;;;;;;;;;5059193;28;20273;-58
2021/08/15 08:37:51;;;;;;;10.85;6.03;;;;;;;;;;5064612;28;20181;-58
2021/08/15 08:40:17;;;;;;;12.63;5.97;;;;;;;;;;5056589;28;20776;-58
2021/08/15 08:42:45;;;;;;;17.33;6.30;;;;;;;;;;5057724;28;20237;-58
2021/08/15 08:45:12;;;;;;;9.73;5.78;;;;;;;;;;5062490;28;20187;-57
2021/08/15 08:47:37;;;;;;;11.00;6.00;;;;;;;;;;5065877;28;20181;-58
2021/08/15 08:50:03;;;;;;;7.50;4.73;;;;;;;;;;5062852;28;20208;-57
2021/08/15 08:52:29;;;;;;;16.98;6.80;;;;;;;;;;5061745;28;20447;-58
2021/08/15 08:55:00;;;;;;;8.65;5.10;;;;;;;;;;5056182;28;20185;-58
2021/08/15 08:57:26;;;;;;;11.00;4.90;;;;;;;;;;5062554;28;20185;-57
2021/08/15 08:59:52;;;;;;;8.98;4.55;;;;;;;;;;5045992;28;20300;-58
2021/08/15 09:02:17;;;;;;;6.40;4.22;;;;;;;;;;5037710;28;20220;-57
2021/08/15 09:04:42;;;;;;;12.55;5.00;;;;;;;;;;5053946;28;20190;-57
2021/08/15 09:07:09;;;;;;;8.80;4.90;;;;;;;;;;5062720;28;20182;-58
2021/08/15 09:09:36;;;;;;;10.38;4.70;;;;;;;;;;5057435;28;20190;-57
2021/08/15 09:12:02;;;;;;;8.15;4.78;;;;;;;;;;5062102;28;20280;-58
2021/08/15 09:14:31;;;;;;;10.05;4.97;;;;;;;;;;5065427;28;20177;-58
2021/08/15 09:17:03;;;;;;;8.13;5.28;;;;;;;;;;5065012;28;20185;-57
2021/08/15 09:19:44;;;;;;;9.63;5.47;;;;;;;;;;5057122;28;20185;-58
2021/08/15 09:22:24;;;;;;;6.70;3.92;;;;;;;;;;5056616;28;20205;-57
2021/08/15 09:24:49;;;;;;;5.38;3.80;;;;;;;;;;5052892;28;20198;-58
2021/08/15 09:27:19;;;;;;;7.22;3.88;;;;;;;;;;5052058;28;20294;-59
2021/08/15 09:30:03;;;;;;;5.72;3.50;;;;;;;;;;5059332;28;20259;-58
2021/08/15 09:32:28;;;;;;;4.63;3.92;;;;;;;;;;5048060;28;20709;-56
2021/08/15 09:34:57;;;;;;;8.13;4.97;;;;;;;;;;5054856;28;20272;-57
2021/08/15 09:37:26;;;;;;;7.03;4.40;;;;;;;;;;5054346;28;20658;-58
2021/08/15 09:39:51;;;;;;;10.27;5.10;;;;;;;;;;5059098;28;20231;-58
2021/08/15 09:42:16;;;;;;;7.78;5.05;;;;;;;;;;5061822;28;20206;-58
2021/08/15 09:44:41;;;;;;;8.80;5.10;;;;;;;;;;5062353;28;20181;-57
2021/08/15 09:47:08;;;;;;;6.65;4.38;;;;;;;;;;5066212;28;20201;-56
2021/08/15 09:49:37;;;;;;;10.10;4.88;;;;;;;;;;5063459;28;20743;-58
2021/08/15 09:52:02;;;;;;;11.23;4.90;;;;;;;;;;5062132;28;20181;-59
2021/08/15 09:54:28;;;;;;;7.63;4.30;;;;;;;;;;5061843;28;20173;-59
2021/08/15 09:56:56;;;;;;;9.95;5.00;;;;;;;;;;5054118;28;20653;-58
2021/08/15 09:59:22;;;;;;;9.88;5.25;;;;;;;;;;5058174;28;20173;-58
2021/08/15 10:01:48;;;;;;;8.55;4.95;;;;;;;;;;5062519;28;20599;-59
2021/08/15 10:04:14;;;;;;;11.20;4.28;;;;;;;;;;5048599;28;20749;-58
2021/08/15 10:06:40;;;;;;;9.50;4.30;;;;;;;;;;5059783;28;20260;-59
2021/08/15 10:09:05;;;;;;;8.30;4.80;;;;;;;;;;5055645;28;20193;-58
2021/08/15 10:11:31;;;;;;;7.72;4.47;;;;;;;;;;5045335;28;20201;-59
2021/08/15 10:13:58;;;;;;;12.15;4.90;;;;;;;;;;5061433;28;20185;-59
2021/08/15 10:16:27;;;;;;;7.15;4.90;;;;;;;;;;5060125;28;20173;-58
2021/08/15 10:18:54;;;;;;;9.63;4.97;;;;;;;;;;5063189;28;20192;-58
2021/08/15 10:21:20;;;;;;;8.90;4.50;;;;;;;;;;5057073;28;20271;-59
2021/08/15 10:23:46;;;;;;;8.88;4.90;;;;;;;;;;5058332;28;20207;-59
2021/08/15 10:26:26;;;;;;;9.07;5.13;;;;;;;;;;5054906;28;20755;-59
2021/08/15 10:28:53;;;;;;;7.38;4.57;;;;;;;;;;5062838;28;20520;-60
2021/08/15 10:31:18;;;;;;;8.65;5.57;;;;;;;;;;5045371;28;20205;-57
2021/08/15 10:33:53;;;;;;;6.85;4.57;;;;;;;;;;5057368;28;20181;-58
2021/08/15 10:36:20;;;;;;;8.77;4.75;;;;;;;;;;5060494;28;20763;-59
2021/08/15 10:38:46;;;;;;;8.15;4.28;;;;;;;;;;5061191;28;20226;-59
2021/08/15 10:41:11;;;;;;;7.63;4.95;;;;;;;;;;5059946;28;20288;-58
2021/08/15 10:43:36;;;;;;;9.70;4.70;;;;;;;;;;5060941;28;20235;-59
2021/08/15 10:46:08;;;;;;;5.23;3.90;;;;;;;;;;5058377;28;20173;-59
2021/08/15 10:48:49;;;;;;;5.43;3.65;;;;;;;;;;5042741;28;20878;-59
2021/08/15 10:51:35;;;;;;;6.97;4.25;;;;;;;;;;5054562;28;20198;-59
2021/08/15 10:54:00;;;;;;;8.13;4.00;;;;;;;;;;5047745;28;20592;-59
2021/08/15 10:56:45;;;;;;;7.18;3.75;;;;;;;;;;5042287;28;20239;-58
2021/08/15 10:59:49;;;;;;;5.80;4.35;;;;;;;;;;5044155;28;20279;-60
2021/08/15 11:02:14;;;;;;;7.60;3.97;;;;;;;;;;4959319;28;20220;-58
2021/08/15 11:04:40;;;;;;;5.47;4.57;;;;;;;;;;4959329;28;20185;-58
2021/08/15 11:07:05;;;;;;;7.03;4.35;;;;;;;;;;5008568;28;20423;-59
2021/08/15 11:09:49;;;;;;;9.38;4.22;;;;;;;;;;5057845;28;20806;-59
2021/08/15 11:12:15;;;;;;;6.50;3.95;;;;;;;;;;5047245;28;20239;-60
2021/08/15 11:14:52;;;;;;;8.70;4.30;;;;;;;;;;5065637;28;20185;-59
2021/08/15 11:17:17;;;;;;;5.32;3.22;;;;;;;;;;5046693;28;20736;-59
2021/08/15 11:19:43;;;;;;;4.05;3.60;;;;;;;;;;5061816;28;20300;-57
2021/08/15 11:22:11;;;;;;;5.43;3.42;;;;;;;;;;5046626;28;20688;-57
2021/08/15 11:24:36;;;;;;;6.43;4.00;;;;;;;;;;5055042;28;20266;-56
2021/08/15 11:27:02;;;;;;;8.63;4.23;;;;;;;;;;5060177;28;20298;-58
2021/08/15 11:29:27;;;;;;;5.03;3.40;;;;;;;;;;5058723;28;20451;-58
2021/08/15 11:31:54;;;;;;;6.47;3.63;;;;;;;;;;5046606;28;20226;-58
2021/08/15 11:34:19;;;;;;;8.57;4.20;;;;;;;;;;5061492;28;20191;-57
2021/08/15 11:36:53;;;;;;;6.30;3.60;;;;;;;;;;5059802;28;20582;-58
2021/08/15 11:39:19;;;;;;;7.72;3.85;;;;;;;;;;5062535;28;20694;-59
2021/08/15 11:41:44;;;;;;;5.70;3.97;;;;;;;;;;5066195;28;20212;-58
2021/08/15 11:44:09;;;;;;;5.30;3.65;;;;;;;;;;5063294;28;20829;-58
2021/08/15 11:46:34;;;;;;;9.50;3.95;;;;;;;;;;5048796;28;20729;-56
2021/08/15 11:48:59;;;;;;;4.87;3.50;;;;;;;;;;5065113;28;20795;-56
2021/08/15 11:51:25;;;;;;;5.32;3.58;;;;;;;;;;5044896;28;20481;-58
2021/08/15 11:53:50;;;;;;;7.40;3.70;;;;;;;;;;5063044;28;20186;-59
2021/08/15 11:56:19;;;;;;;5.82;3.90;;;;;;;;;;5057905;28;20915;-57
2021/08/15 11:58:45;;;;;;;5.22;3.22;;;;;;;;;;5062240;28;20193;-59
2021/08/15 12:01:10;;;;;;;4.82;3.58;;;;;;;;;;5064370;28;20209;-57
2021/08/15 12:03:35;;;;;;;4.22;3.42;;;;;;;;;;5067600;28;20651;-58
2021/08/15 12:06:06;;;;;;;7.13;3.92;;;;;;;;;;5062835;28;20739;-58
2021/08/15 12:08:41;;;;;;;7.72;3.72;;;;;;;;;;5062792;28;20814;-58
2021/08/15 12:11:25;;;;;;;6.03;3.45;;;;;;;;;;5060097;28;20750;-57
2021/08/15 12:13:52;;;;;;;7.32;3.58;;;;;;;;;;5045411;28;20182;-58
2021/08/15 12:16:21;;;;;;;5.03;3.17;;;;;;;;;;5042893;28;20683;-60
2021/08/15 12:18:46;;;;;;;5.72;3.17;;;;;;;;;;5063245;28;20185;-57
2021/08/15 12:21:17;;;;;;;6.25;3.85;;;;;;;;;;5065963;28;20690;-59
2021/08/15 12:23:57;;;;;;;5.45;3.55;;;;;;;;;;5061913;28;20177;-59
2021/08/15 12:26:27;;;;;;;3.90;2.90;;;;;;;;;;5042716;28;20196;-57
2021/08/15 12:28:56;;;;;;;4.03;3.10;;;;;;;;;;5066756;28;20569;-57
2021/08/15 12:31:22;;;;;;;4.70;2.95;;;;;;;;;;5065263;28;20225;-60
2021/08/15 12:33:48;;;;;;;7.57;3.22;;;;;;;;;;5054762;28;20186;-58
2021/08/15 12:36:36;;;;;;;4.63;3.15;;;;;;;;;;5041118;28;20190;-57
2021/08/15 12:39:03;;;;;;;5.85;3.70;;;;;;;;;;5061872;28;20277;-58
2021/08/15 12:41:43;;;;;;;3.65;3.33;;;;;;;;;;5057424;28;20288;-57
2021/08/15 12:44:09;;;;;;;11.13;3.92;;;;;;;;;;5060015;28;20189;-58
2021/08/15 12:46:35;;;;;;;4.80;3.40;;;;;;;;;;5060205;28;20568;-59
2021/08/15 12:49:15;;;;;;;4.45;3.60;;;;;;;;;;5055800;28;20173;-57
2021/08/15 12:51:40;;;;;;;6.32;3.25;;;;;;;;;;5046580;28;20179;-57
2021/08/15 12:54:05;;;;;;;6.28;3.70;;;;;;;;;;5062505;28;20230;-58
2021/08/15 12:56:30;;;;;;;3.87;3.13;;;;;;;;;;5060241;28;20564;-58
2021/08/15 12:58:56;;;;;;;7.13;3.57;;;;;;;;;;5048580;28;20477;-59
2021/08/15 13:01:21;;;;;;;4.80;3.13;;;;;;;;;;5038725;28;20542;-59
2021/08/15 13:03:46;;;;;;;8.93;3.45;;;;;;;;;;5043137;28;20448;-59
2021/08/15 13:06:11;;;;;;;4.90;3.20;;;;;;;;;;5065516;28;20181;-56
2021/08/15 13:08:37;;;;;;;7.33;3.50;;;;;;;;;;5039407;28;20582;-57
2021/08/15 13:11:02;;;;;;;6.28;3.40;;;;;;;;;;5060181;28;20444;-56
2021/08/15 13:13:27;;;;;;;5.40;3.50;;;;;;;;;;5065186;28;20178;-56
2021/08/15 13:15:53;;;;;;;9.10;3.63;;;;;;;;;;5039103;28;20515;-58
2021/08/15 13:18:19;;;;;;;5.05;3.13;;;;;;;;;;5055338;28;20419;-58
2021/08/15 13:20:44;;;;;;;4.32;3.75;;;;;;;;;;5064404;28;20210;-58
2021/08/15 13:23:09;;;;;;;4.70;3.00;;;;;;;;;;5065092;28;20201;-58
2021/08/15 13:25:34;;;;;;;6.95;3.45;;;;;;;;;;5040751;28;20181;-58
2021/08/15 13:28:02;;;;;;;4.65;3.30;;;;;;;;;;5058348;28;20184;-55
2021/08/15 13:30:27;;;;;;;7.10;4.72;;;;;;;;;;5053874;28;20185;-57
2021/08/15 13:32:52;;;;;;;6.55;3.50;;;;;;;;;;5056039;28;20199;-56
2021/08/15 13:35:18;;;;;;;4.45;3.03;;;;;;;;;;5062390;28;20693;-57
2021/08/15 13:37:43;;;;;;;4.68;3.05;;;;;;;;;;5065205;28;20319;-58
2021/08/15 13:40:09;;;;;;;5.28;3.08;;;;;;;;;;5053812;28;20217;-57
2021/08/15 13:42:35;;;;;;;5.78;3.17;;;;;;;;;;5048134;28;20204;-57
2021/08/15 13:45:00;;;;;;;5.40;3.50;;;;;;;;;;5046417;28;20241;-57
2021/08/15 13:47:26;;;;;;;3.35;2.58;;;;;;;;;;5019810;28;20190;-56
2021/08/15 13:49:52;;;;;;;4.32;2.70;;;;;;;;;;5021015;28;20327;-57
2021/08/15 13:52:17;;;;;;;5.20;2.80;;;;;;;;;;5018156;28;20302;-56
2021/08/15 13:54:43;;;;;;;4.28;2.83;;;;;;;;;;5020142;28;20760;-56
2021/08/15 13:57:09;;;;;;;3.50;3.20;;;;;;;;;;5015805;28;20218;-56
2021/08/15 13:59:34;;;;;;;7.25;3.42;;;;;;;;;;5018655;28;20222;-56
2021/08/15 14:01:59;;;;;;;4.03;2.67;;;;;;;;;;5024634;28;20202;-56
2021/08/15 14:04:24;;;;;;;4.40;2.78;;;;;;;;;;5016075;28;20269;-56
2021/08/15 14:06:50;;;;;;;3.23;2.93;;;;;;;;;;5024988;28;20183;-57
2021/08/15 14:09:15;;;;;;;5.87;2.73;;;;;;;;;;5010694;28;20910;-57
2021/08/15 14:11:40;;;;;;;3.40;2.97;;;;;;;;;;5014056;28;20440;-57
2021/08/15 14:14:06;;;;;;;6.55;2.92;;;;;;;;;;5014027;28;20414;-59
2021/08/15 14:16:31;;;;;;;3.75;3.20;;;;;;;;;;5026604;28;20634;-57
2021/08/15 14:18:57;;;;;;;4.07;2.90;;;;;;;;;;5018156;28;20238;-56
2021/08/15 14:21:22;;;;;;;3.47;2.70;;;;;;;;;;5022846;28;20210;-56
2021/08/15 14:23:47;;;;;;;3.65;3.10;;;;;;;;;;5027095;28;20483;-57
2021/08/15 14:26:15;;;;;;;6.13;3.00;;;;;;;;;;5022450;28;20206;-57
2021/08/15 14:28:40;;;;;;;5.20;3.10;;;;;;;;;;5016568;28;20270;-56
2021/08/15 14:31:06;;;;;;;6.15;3.00;;;;;;;;;;5012281;28;20214;-56